VNX weather

Vilankulo Airport
Vilanculo, Inhambane Province, Mozambique

Public forecast

Using degrees Celsius for public forecast. Weather courtesy of forecast.io.

Current aviation weather report (METAR) for Vilankulo Airport

Retrieved 2020/07/13 08:00 UTC (30 minutes ago):

FQVL 130800Z 28007KT 9999 FEW020 23/12 Q1021 NOSIG

Aviation forecast (TAF) for Vilankulo Airport

Retrieved 2020/07/13 06:06 UTC (2 hours ago):

TAF FQVL 130400Z 1306/1406 25015KT 9999 SCT020 TX24/1313Z TN18/1403Z BECMG 1312/1314 32005KT